Airfield :
LOGIN :

Register | Disclaimer

   EN    FR    IT 

 










Legend :    VFR   Marginal VFR   IFR   Intensive IFR   Very Intensive IFR
Visi :
Ceiling :
>= 8 km
>= 3000ft
5 to 8 km
1000 to 3000 ft
1500m to 5 km
500 to 1000 ft
800 to 1500m
200 to 500 ft
< 800m
< 200 ft
Symbols :   Thunderstorms  Fog  Heavy snow  Heavy precipitations  Wind > 20 kt
SIGMETs :     Misc.  Thunderstorms  Icing  Turbulence  Mountain Waves  Volcanic Ashes







- Airport Elevation : 106 ft
- IATA code : XDA
- Download approach charts


LFBY - Dax Seyresse

CURRENT METAR :
  • 210430Z AUTO 28012KT 260V330 1400 // BKN009 BKN014 OVC021 13/12 Q1024

EXPIRED METARs :
  • 210400Z AUTO 29010G21KT 250V320 1500 1300 // BKN009 OVC014 13/12 Q1024
  • 210330Z AUTO 29013KT 260V320 1400 // BKN008 OVC015 13/12 Q1024
  • 210300Z AUTO 28012KT 260V320 1400 // BKN008 OVC014 13/12 Q1024
  • 210230Z AUTO 29010G20KT 260V320 1400 1300 // BKN008 BKN012 OVC018 13/12 Q1024
  • 210200Z AUTO 28010KT 250V320 1300 // BKN009 OVC017 13/12 Q1024

Expired Forecast.
No reported NOTAMs for that airfield.
1 SIGMET reported for the Bordeaux FIR (LFBB) :
 
Severe mountain waves
LFBB SIGMET 1 VALID 210300/210700 LFPW
LFBB BORDEAUX FIR/UIR SEV MTW FCST WI N4245 E00230 - N4215 E00230 - N4245 E00000 - N4300 E00000 - N4245 E00230 SFC/FL350 STNR NC=



MET'MAP, your aeronautical weather chart ! - Copyright ORBIFLY December 2007 - Disclaimer

ORBIFLY MET'MAP TEAM :

Programming & Development : Alexandra Zaïnal
Concept & Development : Baudouin d'Aumeries
Co-Development & Prog : Marc-Olivier Méhu
Technical & hardware support : Manuel Goepfert

Contact : metmap@orbifly.com




SOURCES & CREDITS :

   NOAA